Time;durP1;ratioP1;P1;durP2;ratioP2;P2;SDS_P1;SDS_P2;PMS_P1;PMS_P2;Temp;Humidity;BMP_temperature;BMP_pressure;BME280_temperature;BME280_humidity;BME280_pressure;Samples;Min_cycle;Max_cycle;Signal;HPM_P1;HPM_P2
2022/06/09 00:03:27;;;;;;;2.43;1.90;;;17.30;99.10;;;;;;21078966;28;20201;-63
2022/06/09 00:13:29;;;;;;;4.50;2.50;;;17.30;99.20;;;;;;21079948;28;20239;-65
2022/06/09 00:23:30;;;;;;;3.47;2.50;;;17.20;99.20;;;;;;21078773;28;20206;-64
2022/06/09 00:33:32;;;;;;;4.30;2.40;;;17.20;99.20;;;;;;21091532;28;20600;-65
2022/06/09 00:43:34;;;;;;;2.60;2.27;;;17.20;99.30;;;;;;21095092;28;20259;-64
2022/06/09 00:53:40;;;;;;;4.47;2.60;;;17.20;99.30;;;;;;21093744;28;20233;-64
2022/06/09 01:03:53;;;;;;;2.60;2.40;;;17.20;99.40;;;;;;21092969;28;20656;-65
2022/06/09 01:13:57;;;;;;;4.53;2.30;;;17.20;99.30;;;;;;21092694;28;20287;-66
2022/06/09 01:24:20;;;;;;;4.63;2.90;;;17.20;99.30;;;;;;21073529;28;20213;-64
2022/06/09 01:34:29;;;;;;;3.17;2.40;;;17.20;99.20;;;;;;21090512;28;20231;-63
2022/06/09 01:44:30;;;;;;;2.97;2.40;;;17.10;99.30;;;;;;21089706;28;20667;-63
2022/06/09 01:54:36;;;;;;;6.20;2.53;;;17.00;99.40;;;;;;21089292;28;20615;-63
2022/06/09 02:04:46;;;;;;;5.00;2.50;;;17.00;99.40;;;;;;21088361;28;20213;-63
2022/06/09 02:14:53;;;;;;;3.67;2.57;;;17.10;99.50;;;;;;21087688;28;20637;-63
2022/06/09 02:24:55;;;;;;;2.60;2.40;;;17.10;99.50;;;;;;21086705;28;20249;-62
2022/06/09 02:34:57;;;;;;;4.77;2.90;;;17.00;99.50;;;;;;21085801;28;20263;-63
2022/06/09 02:44:58;;;;;;;3.40;2.70;;;17.00;99.60;;;;;;21085364;28;20669;-62
2022/06/09 02:55:00;;;;;;;3.00;2.70;;;17.00;99.70;;;;;;21083246;28;20621;-62
2022/06/09 03:05:02;;;;;;;3.77;2.90;;;17.00;99.80;;;;;;21083386;28;20213;-63
2022/06/09 03:15:07;;;;;;;11.60;3.30;;;16.90;99.80;;;;;;21082992;28;20241;-63
2022/06/09 03:25:09;;;;;;;4.40;3.70;;;17.00;99.80;;;;;;21081868;28;20588;-63
2022/06/09 03:35:12;;;;;;;7.07;3.57;;;16.90;99.80;;;;;;21080653;28;20239;-64
2022/06/09 03:45:14;;;;;;;6.17;4.07;;;17.00;99.90;;;;;;21080828;28;20639;-67
2022/06/09 03:55:16;;;;;;;9.50;3.70;;;16.90;99.80;;;;;;21079632;28;20236;-68
2022/06/09 04:05:18;;;;;;;8.10;3.43;;;16.90;99.90;;;;;;21078945;28;20207;-67
2022/06/09 04:15:20;;;;;;;5.00;2.90;;;16.80;99.70;;;;;;21060871;28;20259;-65
2022/06/09 04:25:22;;;;;;;3.80;3.13;;;16.90;99.60;;;;;;21077997;28;20225;-66
2022/06/09 04:35:25;;;;;;;3.20;2.73;;;16.90;99.50;;;;;;21077705;28;20232;-67
2022/06/09 04:45:27;;;;;;;6.60;3.13;;;17.00;99.40;;;;;;21077867;28;20212;-65
2022/06/09 04:55:29;;;;;;;5.20;2.97;;;17.10;99.20;;;;;;21075640;28;20343;-64
2022/06/09 05:05:34;;;;;;;4.90;3.10;;;17.20;99.00;;;;;;21075892;28;20300;-64
2022/06/09 05:15:43;;;;;;;9.53;3.07;;;17.20;98.80;;;;;;21078613;28;20656;-64
2022/06/09 05:25:46;;;;;;;5.03;3.30;;;17.20;98.60;;;;;;21091899;28;20315;-63
2022/06/09 05:35:49;;;;;;;11.17;2.70;;;17.10;98.50;;;;;;21090026;28;20723;-64
2022/06/09 05:45:50;;;;;;;4.50;2.60;;;17.20;98.40;;;;;;21089216;28;20683;-64
2022/06/09 05:55:52;;;;;;;5.33;2.80;;;17.30;98.20;;;;;;21070449;28;20228;-63
2022/06/09 06:16:15;;;;;;;4.83;2.60;;;17.40;97.80;;;;;;21088506;28;20239;-68
2022/06/09 06:26:37;;;;;;;8.23;2.97;;;17.50;97.80;;;;;;21092616;28;20229;-65
2022/06/09 06:36:39;;;;;;;7.90;2.87;;;17.70;97.50;;;;;;21084395;28;20245;-66
2022/06/09 06:46:41;;;;;;;9.30;2.90;;;17.80;97.10;;;;;;21082643;28;20215;-68
2022/06/09 06:56:43;;;;;;;7.90;2.87;;;17.80;96.80;;;;;;21065011;28;20345;-68
2022/06/09 07:06:45;;;;;;;6.67;2.43;;;18.00;96.30;;;;;;21082108;28;20207;-66
2022/06/09 07:16:46;;;;;;;5.60;2.70;;;18.10;96.00;;;;;;21063861;28;20268;-69
2022/06/09 07:26:48;;;;;;;5.20;2.80;;;18.10;95.20;;;;;;21081372;28;20237;-63
2022/06/09 07:36:50;;;;;;;4.40;2.50;;;18.00;94.60;;;;;;21078622;28;20249;-68
2022/06/09 07:46:52;;;;;;;4.77;2.47;;;17.90;94.40;;;;;;21078760;28;20203;-66
2022/06/09 07:56:54;;;;;;;9.70;1.90;;;18.10;93.10;;;;;;21078626;28;20241;-67
2022/06/09 08:06:56;;;;;;;6.47;2.07;;;18.40;92.60;;;;;;21078380;28;20206;-63
2022/06/09 08:16:58;;;;;;;4.87;2.17;;;18.50;92.10;;;;;;21076659;28;20243;-63
2022/06/09 08:27:01;;;;;;;6.77;2.33;;;18.60;92.10;;;;;;21059026;28;20718;-63
2022/06/09 08:37:04;;;;;;;6.23;2.10;;;18.70;91.60;;;;;;21076636;28;20236;-66
2022/06/09 08:47:35;;;;;;;7.47;2.73;;;18.80;91.60;;;;;;21076150;28;20609;-62
2022/06/09 08:57:37;;;;;;;5.93;1.80;;;19.00;91.40;;;;;;21092043;28;20240;-62
2022/06/09 09:07:44;;;;;;;6.10;1.63;;;19.10;90.20;;;;;;21088101;28;20212;-62
2022/06/09 09:18:20;;;;;;;3.30;1.57;;;19.20;87.90;;;;;;21083757;28;20327;-64
2022/06/09 09:28:30;;;;;;;6.97;1.93;;;19.30;84.50;;;;;;21090488;28;20598;-64
2022/06/09 09:38:47;;;;;;;4.80;1.50;;;19.50;82.70;;;;;;21089130;28;20250;-65
2022/06/09 09:48:48;;;;;;;3.73;1.60;;;19.30;82.00;;;;;;21088575;28;20231;-66
2022/06/09 09:58:57;;;;;;;4.93;1.40;;;19.60;82.10;;;;;;21088063;28;20207;-63
2022/06/09 10:09:27;;;;;;;5.27;2.00;;;19.90;81.00;;;;;;21087226;28;20667;-63
2022/06/09 10:20:28;;;;;;;7.17;2.00;;;19.80;80.20;;;;;;21086211;28;20544;-65
2022/06/09 10:30:42;;;;;;;4.67;1.60;;;19.40;79.50;;;;;;21085272;28;20249;-64
2022/06/09 10:40:51;;;;;;;3.77;1.50;;;19.20;80.30;;;;;;21085861;28;20216;-65
2022/06/09 11:01:39;;;;;;;6.80;1.70;;;20.00;77.10;;;;;;21082192;28;20206;-63
2022/06/09 11:12:03;;;;;;;3.20;1.50;;;20.30;77.80;;;;;;21080893;28;20233;-64
2022/06/09 11:22:13;;;;;;;4.13;1.40;;;20.20;79.50;;;;;;21080628;28;20216;-62
2022/06/09 11:32:23;;;;;;;4.87;1.80;;;20.40;77.80;;;;;;21080507;28;20241;-69
2022/06/09 11:42:55;;;;;;;5.90;2.00;;;20.50;78.50;;;;;;21079834;28;20246;-64
2022/06/09 11:52:59;;;;;;;4.73;1.30;;;20.10;78.10;;;;;;21071661;28;20703;-68
2022/06/09 12:03:08;;;;;;;1.77;1.10;;;19.80;75.90;;;;;;21075027;28;20206;-65
2022/06/09 12:13:22;;;;;;;4.50;1.93;;;20.20;73.60;;;;;;21077733;28;20279;-68
2022/06/09 12:23:54;;;;;;;12.43;5.93;;;20.20;72.00;;;;;;21075268;28;20265;-65
2022/06/09 12:34:01;;;;;;;2.13;1.20;;;20.40;73.10;;;;;;21038060;28;20238;-65
2022/06/09 12:44:22;;;;;;;6.27;1.60;;;20.40;73.30;;;;;;21076846;28;20251;-63
2022/06/09 12:54:38;;;;;;;10.57;2.33;;;20.40;75.80;;;;;;21075700;28;20244;-63
2022/06/09 13:04:51;;;;;;;7.53;2.27;;;20.40;75.10;;;;;;21075207;28;20217;-66
2022/06/09 13:14:54;;;;;;;5.80;1.80;;;20.40;74.30;;;;;;21074316;28;20605;-63
2022/06/09 13:24:56;;;;;;;4.93;1.60;;;20.10;75.40;;;;;;21064900;28;20230;-66
2022/06/09 13:35:00;;;;;;;5.43;1.50;;;20.30;76.70;;;;;;21075738;28;20233;-68
2022/06/09 13:45:02;;;;;;;2.43;1.40;;;20.60;73.20;;;;;;21087096;28;20217;-66
2022/06/09 13:55:13;;;;;;;6.13;1.30;;;20.50;69.80;;;;;;21086507;28;20237;-65
2022/06/09 14:05:15;;;;;;;3.57;1.27;;;20.10;70.80;;;;;;21068824;28;20209;-65
2022/06/09 14:15:20;;;;;;;2.73;1.37;;;20.00;72.10;;;;;;21085673;28;20233;-66
2022/06/09 14:25:23;;;;;;;3.83;2.40;;;20.10;73.50;;;;;;21085328;28;20236;-64
2022/06/09 14:35:26;;;;;;;3.03;1.60;;;20.10;75.40;;;;;;21084960;28;20248;-66
2022/06/09 14:45:28;;;;;;;3.30;1.67;;;20.10;77.70;;;;;;21084638;28;20284;-66
2022/06/09 14:55:35;;;;;;;8.60;1.80;;;20.10;80.20;;;;;;21084046;28;20238;-67
2022/06/09 15:05:37;;;;;;;4.80;2.60;;;20.20;81.90;;;;;;21082720;28;20210;-69
2022/06/09 15:15:39;;;;;;;8.13;4.50;;;20.20;81.40;;;;;;21081878;28;20237;-66
2022/06/09 15:25:42;;;;;;;2.43;1.83;;;20.00;79.20;;;;;;21066199;28;20234;-64
2022/06/09 15:35:44;;;;;;;1.33;1.20;;;19.80;79.20;;;;;;20997313;28;20238;-63
2022/06/09 15:45:49;;;;;;;7.23;2.03;;;19.80;77.70;;;;;;20998085;28;20210;-68
2022/06/09 15:55:51;;;;;;;3.00;1.40;;;19.80;75.50;;;;;;20996388;28;20237;-65
2022/06/09 16:05:53;;;;;;;3.70;1.83;;;19.60;74.10;;;;;;20994857;28;20214;-61
2022/06/09 16:15:55;;;;;;;3.90;1.20;;;20.70;72.50;;;;;;20994837;28;20590;-64
2022/06/09 16:25:57;;;;;;;4.37;1.60;;;21.10;70.10;;;;;;20994910;28;20241;-67
2022/06/09 16:35:59;;;;;;;1.47;1.00;;;21.20;69.40;;;;;;21077996;28;20260;-65
2022/06/09 16:46:01;;;;;;;3.87;1.50;;;21.10;68.30;;;;;;21087115;28;20736;-63
2022/06/09 16:56:03;;;;;;;5.97;3.15;;;20.90;69.50;;;;;;21076081;28;20482;-62
2022/06/09 17:06:06;;;;;;;5.53;2.20;;;21.10;72.60;;;;;;21076770;28;20213;-64
2022/06/09 17:16:08;;;;;;;4.10;2.03;;;20.70;73.40;;;;;;21088214;28;20229;-61
2022/06/09 17:26:15;;;;;;;4.70;2.57;;;20.40;71.30;;;;;;21085833;28;20235;-60
2022/06/09 17:36:18;;;;;;;8.63;3.53;;;20.90;71.10;;;;;;21007228;28;20600;-62
2022/06/09 17:46:20;;;;;;;8.40;3.23;;;20.70;71.80;;;;;;21006274;28;20204;-64
2022/06/09 17:56:22;;;;;;;8.93;3.70;;;21.20;70.60;;;;;;21005516;28;20235;-63
2022/06/09 18:06:24;;;;;;;6.83;2.97;;;21.00;71.00;;;;;;21002327;28;20254;-63
2022/06/09 18:16:26;;;;;;;3.83;2.10;;;20.80;71.70;;;;;;21000841;28;20238;-63
2022/06/09 18:26:28;;;;;;;3.50;2.10;;;20.40;72.70;;;;;;21021409;28;20321;-65
2022/06/09 18:36:30;;;;;;;4.67;1.90;;;20.20;73.80;;;;;;21067755;28;20229;-63
2022/06/09 18:46:32;;;;;;;2.77;1.73;;;20.00;74.40;;;;;;21085336;28;20213;-63
2022/06/09 18:56:34;;;;;;;3.77;2.80;;;19.90;75.00;;;;;;21083967;28;20601;-63
2022/06/09 19:06:36;;;;;;;4.07;2.20;;;19.60;76.40;;;;;;21082824;28;20204;-67
2022/06/09 19:16:41;;;;;;;3.53;2.37;;;19.50;77.00;;;;;;21098070;28;20235;-64
2022/06/09 19:26:43;;;;;;;3.70;2.17;;;19.40;77.60;;;;;;21082439;28;20237;-63
2022/06/09 19:36:48;;;;;;;4.90;2.57;;;19.20;78.40;;;;;;21080489;28;20699;-64
2022/06/09 19:46:50;;;;;;;7.07;3.00;;;19.00;79.20;;;;;;21080378;28;20566;-65
2022/06/09 19:56:51;;;;;;;3.87;2.67;;;18.90;80.50;;;;;;21080201;28;20243;-63
2022/06/09 20:06:53;;;;;;;4.70;2.73;;;18.70;81.30;;;;;;21078324;28;20597;-63
2022/06/09 20:16:55;;;;;;;3.67;2.70;;;18.50;82.00;;;;;;21078570;28;20233;-64
2022/06/09 20:26:57;;;;;;;7.00;3.70;;;18.40;82.90;;;;;;21078504;28;20242;-64
2022/06/09 20:36:59;;;;;;;4.37;2.97;;;18.30;83.50;;;;;;21078069;28;20246;-67
2022/06/09 20:47:01;;;;;;;5.37;2.70;;;18.20;84.20;;;;;;21084946;28;20213;-63
2022/06/09 20:57:03;;;;;;;4.20;3.00;;;18.20;84.70;;;;;;21094743;28;20228;-63
2022/06/09 21:07:05;;;;;;;5.30;3.20;;;18.10;85.40;;;;;;21092402;28;20210;-62
2022/06/09 21:27:29;;;;;;;5.27;3.13;;;17.80;87.50;;;;;;21091811;28;20629;-71
2022/06/09 21:37:31;;;;;;;5.80;3.20;;;17.60;88.50;;;;;;21091079;28;20296;-66
2022/06/09 21:47:33;;;;;;;6.57;3.60;;;17.50;89.20;;;;;;21090498;28;20671;-70
2022/06/09 21:57:36;;;;;;;7.77;3.23;;;17.50;89.70;;;;;;21092367;28;20235;-65
2022/06/09 22:07:38;;;;;;;6.77;3.23;;;17.50;90.30;;;;;;21090315;28;20210;-69
2022/06/09 22:17:40;;;;;;;5.47;3.23;;;17.50;90.30;;;;;;21088002;28;20234;-70
2022/06/09 22:27:42;;;;;;;8.27;3.60;;;17.20;90.50;;;;;;21087266;28;20235;-64
2022/06/09 22:37:44;;;;;;;3.83;3.20;;;17.10;90.70;;;;;;21086587;28;20237;-69
2022/06/09 22:47:46;;;;;;;8.43;3.97;;;17.10;91.00;;;;;;21085856;28;20198;-68
2022/06/09 22:57:47;;;;;;;5.03;3.70;;;16.90;91.30;;;;;;21085024;28;20230;-70
2022/06/09 23:07:50;;;;;;;8.90;3.77;;;16.80;91.60;;;;;;21082788;28;20214;-70
2022/06/09 23:17:52;;;;;;;6.00;4.20;;;16.60;91.90;;;;;;21083118;28;20242;-65
2022/06/09 23:27:53;;;;;;;7.43;3.97;;;16.50;92.10;;;;;;21082600;28;20235;-69
2022/06/09 23:37:58;;;;;;;5.23;3.83;;;16.50;92.40;;;;;;21081510;28;20313;-68
2022/06/09 23:48:07;;;;;;;6.73;4.00;;;16.40;92.50;;;;;;21081095;28;20590;-64
2022/06/09 23:58:11;;;;;;;11.17;4.07;;;16.40;92.80;;;;;;21080661;28;20299;-65
